Time;durP1;ratioP1;P1;durP2;ratioP2;P2;SDS_P1;SDS_P2;PMS_P1;PMS_P2;Temp;Humidity;BMP_temperature;BMP_pressure;BME280_temperature;BME280_humidity;BME280_pressure;Samples;Min_cycle;Max_cycle;Signal;HPM_P1;HPM_P2
2022/02/14 00:00:37;;;;;;;9.97;5.17;;;5.70;63.20;;;;;;4987010;28;20541;-72
2022/02/14 00:03:04;;;;;;;7.83;5.03;;;5.70;62.90;;;;;;4986875;28;20425;-72
2022/02/14 00:05:32;;;;;;;6.83;4.33;;;5.70;62.80;;;;;;4986152;28;20461;-71
2022/02/14 00:07:58;;;;;;;6.10;4.20;;;5.80;61.70;;;;;;4981718;28;20800;-70
2022/02/14 00:10:24;;;;;;;8.67;4.20;;;6.00;60.10;;;;;;4991567;28;20495;-71
2022/02/14 00:12:51;;;;;;;8.00;4.43;;;6.10;58.90;;;;;;4986274;28;20918;-72
2022/02/14 00:15:18;;;;;;;7.37;4.70;;;6.30;58.90;;;;;;4979912;28;20801;-72
2022/02/14 00:17:44;;;;;;;6.77;4.63;;;6.40;58.80;;;;;;4981672;28;20426;-70
2022/02/14 00:20:10;;;;;;;7.03;4.30;;;6.40;58.80;;;;;;4990548;28;20437;-71
2022/02/14 00:22:36;;;;;;;8.33;4.60;;;6.50;58.50;;;;;;4980631;28;20207;-72
2022/02/14 00:25:03;;;;;;;7.93;4.17;;;6.50;57.40;;;;;;4985765;28;20437;-69
2022/02/14 00:27:29;;;;;;;7.67;4.13;;;6.60;56.60;;;;;;4980795;28;21064;-71
2022/02/14 00:29:55;;;;;;;9.67;4.33;;;6.80;55.70;;;;;;4985721;28;20426;-69
2022/02/14 00:32:22;;;;;;;6.00;4.50;;;6.90;55.30;;;;;;4986688;28;20422;-71
2022/02/14 00:34:48;;;;;;;8.17;3.80;;;6.90;55.60;;;;;;4975620;28;20214;-71
2022/02/14 00:37:14;;;;;;;5.47;3.60;;;7.00;55.40;;;;;;4979604;28;20476;-71
2022/02/14 00:39:40;;;;;;;6.50;4.33;;;7.10;54.40;;;;;;4974394;28;20422;-71
2022/02/14 00:42:06;;;;;;;9.20;4.27;;;7.20;53.70;;;;;;4982769;28;20417;-70
2022/02/14 00:44:32;;;;;;;10.03;4.70;;;7.30;53.00;;;;;;4982522;28;20477;-70
2022/02/14 00:46:58;;;;;;;11.87;3.87;;;7.30;53.00;;;;;;4983766;28;20461;-72
2022/02/14 00:49:24;;;;;;;8.40;4.27;;;7.40;53.40;;;;;;4983928;28;20191;-71
2022/02/14 00:51:50;;;;;;;9.00;4.50;;;7.40;52.40;;;;;;4983954;28;20445;-71
2022/02/14 00:54:15;;;;;;;9.23;5.07;;;7.40;52.40;;;;;;4990525;28;20200;-72
2022/02/14 00:56:41;;;;;;;7.80;4.17;;;7.40;53.80;;;;;;4986747;28;20188;-70
2022/02/14 00:59:07;;;;;;;5.57;4.07;;;7.40;52.80;;;;;;4990712;28;20187;-69
2022/02/14 01:01:33;;;;;;;10.30;4.10;;;7.40;53.40;;;;;;4984064;28;20957;-70
2022/02/14 01:03:59;;;;;;;7.13;4.23;;;7.40;52.80;;;;;;4985461;28;20192;-69
2022/02/14 01:06:26;;;;;;;9.00;4.00;;;7.40;52.60;;;;;;4981001;28;20187;-72
2022/02/14 01:08:53;;;;;;;5.83;4.40;;;7.40;53.00;;;;;;4985919;28;20419;-71
2022/02/14 01:11:19;;;;;;;6.63;4.57;;;7.40;54.10;;;;;;4986705;28;20456;-72
2022/02/14 01:13:45;;;;;;;5.63;3.73;;;7.30;54.40;;;;;;4981450;28;20462;-70
2022/02/14 01:16:10;;;;;;;8.30;4.73;;;7.30;54.60;;;;;;4983857;28;20536;-70
2022/02/14 01:18:36;;;;;;;7.23;4.60;;;7.20;54.40;;;;;;4976095;28;20453;-70
2022/02/14 01:21:02;;;;;;;7.93;4.33;;;7.20;55.20;;;;;;4983771;28;20293;-70
2022/02/14 01:23:28;;;;;;;7.60;5.20;;;7.10;55.40;;;;;;4984406;28;20182;-71
2022/02/14 01:25:54;;;;;;;6.70;4.00;;;7.10;54.90;;;;;;4980067;28;20501;-69
2022/02/14 01:28:20;;;;;;;8.40;4.07;;;7.10;52.50;;;;;;4970781;28;20516;-70
2022/02/14 01:30:46;;;;;;;9.53;4.40;;;7.20;53.20;;;;;;4982793;28;20546;-71
2022/02/14 01:33:12;;;;;;;6.80;4.17;;;7.20;53.30;;;;;;4985467;28;20213;-69
2022/02/14 01:35:37;;;;;;;7.37;4.07;;;7.20;54.10;;;;;;4986178;28;20650;-69
2022/02/14 01:38:04;;;;;;;10.27;5.10;;;7.20;53.80;;;;;;4989890;28;20183;-69
2022/02/14 01:40:30;;;;;;;6.00;4.03;;;7.20;54.40;;;;;;4984647;28;20202;-71
2022/02/14 01:42:56;;;;;;;6.20;3.33;;;7.20;53.70;;;;;;4984397;28;20445;-69
2022/02/14 01:45:21;;;;;;;7.30;3.93;;;7.20;52.90;;;;;;4990760;28;20429;-70
2022/02/14 01:47:47;;;;;;;7.90;4.10;;;7.20;52.50;;;;;;4984883;28;20222;-71
2022/02/14 01:50:15;;;;;;;6.80;3.90;;;7.20;53.00;;;;;;4988472;28;20214;-68
2022/02/14 01:52:42;;;;;;;7.50;3.40;;;7.10;53.30;;;;;;4987476;28;20538;-69
2022/02/14 01:55:09;;;;;;;6.70;3.47;;;7.10;51.60;;;;;;4992266;28;20421;-71
2022/02/14 01:57:36;;;;;;;7.10;3.40;;;7.20;51.20;;;;;;4986328;28;20422;-71
2022/02/14 02:00:14;;;;;;;6.37;3.60;;;7.20;51.70;;;;;;4987603;28;20467;-71
2022/02/14 02:02:41;;;;;;;5.90;3.50;;;7.30;52.10;;;;;;4978007;28;20598;-72
2022/02/14 02:05:07;;;;;;;6.03;3.73;;;7.20;52.00;;;;;;4988787;28;20504;-72
2022/02/14 02:07:34;;;;;;;6.50;3.80;;;7.30;52.10;;;;;;4986767;28;20786;-70
2022/02/14 02:10:00;;;;;;;7.30;3.53;;;7.30;52.50;;;;;;4988360;28;20421;-69
2022/02/14 02:12:26;;;;;;;6.40;3.40;;;7.20;51.60;;;;;;4978352;28;20430;-71
2022/02/14 02:15:00;;;;;;;8.63;3.57;;;7.30;49.90;;;;;;4986161;28;20461;-71
2022/02/14 02:17:30;;;;;;;4.23;2.53;;;7.40;49.40;;;;;;4986461;28;20550;-72
2022/02/14 02:19:57;;;;;;;3.93;2.90;;;7.50;47.10;;;;;;4982029;28;20426;-71
2022/02/14 02:22:23;;;;;;;4.40;3.20;;;7.70;47.80;;;;;;4982659;28;20823;-70
2022/02/14 02:24:54;;;;;;;4.10;2.63;;;7.80;46.60;;;;;;4982688;28;20458;-72
2022/02/14 02:27:25;;;;;;;5.67;3.03;;;7.90;46.60;;;;;;4983706;28;20458;-70
2022/02/14 02:29:54;;;;;;;6.73;3.20;;;7.90;47.80;;;;;;4987883;28;20426;-71
2022/02/14 02:32:21;;;;;;;4.63;3.10;;;7.90;47.80;;;;;;4990243;28;20433;-71
2022/02/14 02:34:47;;;;;;;5.17;2.77;;;7.90;47.30;;;;;;4985579;28;20465;-69
2022/02/14 02:37:15;;;;;;;4.57;2.90;;;8.00;45.90;;;;;;4983152;28;20426;-72
2022/02/14 02:39:41;;;;;;;5.63;2.80;;;7.90;46.30;;;;;;4986458;28;20471;-70
2022/02/14 02:42:09;;;;;;;3.77;2.93;;;7.90;47.80;;;;;;4984272;28;20427;-70
2022/02/14 02:44:36;;;;;;;7.43;4.00;;;8.00;47.00;;;;;;4985763;28;20433;-70
2022/02/14 02:47:05;;;;;;;6.17;3.37;;;8.00;48.20;;;;;;4985250;28;20942;-71
2022/02/14 02:49:31;;;;;;;9.70;3.40;;;7.90;48.50;;;;;;4984474;28;20430;-70
2022/02/14 02:51:57;;;;;;;8.00;3.30;;;7.80;48.90;;;;;;4986132;28;20457;-69
2022/02/14 02:54:24;;;;;;;4.53;3.20;;;7.70;49.30;;;;;;4986202;28;20473;-70
2022/02/14 02:56:53;;;;;;;10.83;4.60;;;7.60;49.30;;;;;;4977326;28;20521;-73
2022/02/14 02:59:19;;;;;;;7.13;3.13;;;7.50;49.80;;;;;;4981970;28;20525;-71
2022/02/14 03:01:45;;;;;;;8.73;3.27;;;7.50;49.40;;;;;;4985336;28;20454;-70
2022/02/14 03:04:13;;;;;;;7.90;3.00;;;7.40;49.70;;;;;;4986289;28;20446;-69
2022/02/14 03:06:39;;;;;;;4.83;3.30;;;7.40;49.70;;;;;;4982723;28;20191;-70
2022/02/14 03:09:06;;;;;;;7.30;3.47;;;7.30;50.20;;;;;;4985809;28;20436;-71
2022/02/14 03:11:33;;;;;;;5.63;2.83;;;7.30;50.60;;;;;;4985145;28;20446;-72
2022/02/14 03:13:59;;;;;;;5.80;3.20;;;7.20;50.30;;;;;;4982321;28;20558;-71
2022/02/14 03:16:25;;;;;;;8.10;3.10;;;7.20;50.50;;;;;;4986972;28;20524;-70
2022/02/14 03:18:51;;;;;;;5.07;2.93;;;7.20;51.20;;;;;;4990896;28;20188;-70
2022/02/14 03:21:20;;;;;;;6.97;3.20;;;7.10;51.00;;;;;;4986334;28;20442;-70
2022/02/14 03:23:47;;;;;;;9.17;3.10;;;7.10;51.20;;;;;;4984659;28;20427;-72
2022/02/14 03:26:16;;;;;;;5.00;3.00;;;7.00;51.60;;;;;;4985268;28;20425;-71
2022/02/14 03:28:42;;;;;;;5.10;2.80;;;7.00;51.00;;;;;;4975379;28;20430;-71
2022/02/14 03:31:08;;;;;;;3.60;2.87;;;7.00;51.60;;;;;;4982137;28;20450;-69
2022/02/14 03:33:34;;;;;;;6.70;3.30;;;6.90;51.40;;;;;;4980944;28;20465;-71
2022/02/14 03:36:00;;;;;;;4.37;3.23;;;6.90;50.20;;;;;;4980304;28;20200;-72
2022/02/14 03:38:27;;;;;;;4.43;3.10;;;6.90;51.30;;;;;;4980216;28;20946;-71
2022/02/14 03:40:52;;;;;;;4.60;2.60;;;6.80;51.00;;;;;;4987903;28;20207;-70
2022/02/14 03:43:18;;;;;;;4.97;3.07;;;6.80;50.60;;;;;;4977781;28;20510;-72
2022/02/14 03:45:44;;;;;;;5.57;2.73;;;6.80;49.30;;;;;;4981874;28;20225;-70
2022/02/14 03:48:10;;;;;;;4.67;2.80;;;6.80;49.40;;;;;;4983174;28;20184;-72
2022/02/14 03:50:36;;;;;;;2.93;2.37;;;6.90;49.80;;;;;;4986774;28;20854;-70
2022/02/14 03:53:03;;;;;;;4.60;2.67;;;6.90;49.90;;;;;;4977905;28;20465;-71
2022/02/14 03:55:29;;;;;;;8.00;3.40;;;6.80;49.90;;;;;;4978159;28;20422;-72
2022/02/14 03:57:55;;;;;;;6.90;3.57;;;6.70;50.30;;;;;;4976338;28;20940;-71
2022/02/14 04:00:22;;;;;;;7.37;2.70;;;6.70;50.60;;;;;;4977912;28;20588;-70
2022/02/14 04:02:48;;;;;;;5.90;2.50;;;6.60;50.60;;;;;;4968929;28;20509;-71
2022/02/14 04:05:16;;;;;;;6.53;3.17;;;6.50;50.90;;;;;;4977258;28;20893;-74
2022/02/14 04:07:42;;;;;;;5.97;2.67;;;6.50;51.40;;;;;;4977059;28;20423;-71
2022/02/14 04:10:11;;;;;;;7.43;3.20;;;6.40;51.70;;;;;;4975847;28;21208;-73
2022/02/14 04:12:37;;;;;;;5.10;3.40;;;6.40;51.80;;;;;;4973281;28;20825;-73
2022/02/14 04:15:04;;;;;;;6.50;3.00;;;6.40;51.40;;;;;;4973773;28;20552;-73
2022/02/14 04:17:30;;;;;;;4.67;2.57;;;6.30;52.20;;;;;;4970050;28;20219;-73
2022/02/14 04:19:56;;;;;;;4.00;2.90;;;6.30;52.50;;;;;;4984873;28;20422;-72
2022/02/14 04:22:22;;;;;;;4.00;2.70;;;6.30;52.80;;;;;;4969252;28;20883;-73
2022/02/14 04:24:48;;;;;;;4.13;2.70;;;6.20;52.90;;;;;;4982409;28;20518;-72
2022/02/14 04:27:14;;;;;;;6.07;3.20;;;6.10;53.20;;;;;;4979450;28;20194;-72
2022/02/14 04:29:40;;;;;;;5.23;2.43;;;6.10;53.30;;;;;;4977619;28;20628;-74
2022/02/14 04:32:07;;;;;;;7.27;3.17;;;6.00;53.60;;;;;;4982338;28;20450;-73
2022/02/14 04:34:33;;;;;;;12.13;3.90;;;5.90;53.80;;;;;;4977485;28;20473;-74
2022/02/14 04:36:59;;;;;;;5.17;3.00;;;5.90;54.10;;;;;;4971255;28;20799;-75
2022/02/14 04:39:26;;;;;;;4.77;2.83;;;5.80;54.10;;;;;;4977029;28;20426;-74
2022/02/14 04:41:52;;;;;;;5.80;3.00;;;5.80;54.20;;;;;;4978270;28;20944;-72
2022/02/14 04:44:17;;;;;;;5.13;2.83;;;5.70;54.40;;;;;;4973836;28;20457;-75
2022/02/14 04:46:43;;;;;;;4.83;3.13;;;5.70;54.80;;;;;;4975182;28;20199;-72
2022/02/14 04:49:09;;;;;;;7.00;3.20;;;5.70;55.20;;;;;;4976198;28;20194;-71
2022/02/14 04:51:35;;;;;;;8.03;3.83;;;5.60;55.00;;;;;;4975918;28;20287;-73
2022/02/14 04:54:02;;;;;;;7.00;4.20;;;5.60;55.60;;;;;;4975955;28;20465;-72
2022/02/14 04:56:28;;;;;;;7.47;4.17;;;5.60;55.80;;;;;;4975154;28;20194;-72
2022/02/14 04:58:55;;;;;;;10.27;4.83;;;5.60;56.20;;;;;;4971222;28;20437;-73
2022/02/14 05:01:21;;;;;;;7.80;4.50;;;5.60;56.90;;;;;;4971305;28;20454;-73
2022/02/14 05:03:47;;;;;;;8.20;4.50;;;5.60;57.30;;;;;;4982706;28;20433;-72
2022/02/14 05:06:13;;;;;;;10.37;4.70;;;5.60;57.40;;;;;;4979704;28;20517;-73
2022/02/14 05:08:39;;;;;;;6.93;3.80;;;5.50;57.70;;;;;;4977897;28;20604;-73
2022/02/14 05:11:06;;;;;;;6.13;3.60;;;5.50;57.80;;;;;;4975853;28;20202;-72
2022/02/14 05:13:31;;;;;;;9.80;4.27;;;5.50;57.70;;;;;;4977775;28;21213;-73
2022/02/14 05:15:57;;;;;;;8.30;3.40;;;5.50;58.10;;;;;;4970669;28;20502;-71
2022/02/14 05:18:23;;;;;;;5.60;3.30;;;5.40;58.50;;;;;;4975403;28;20699;-72
2022/02/14 05:20:49;;;;;;;5.00;3.20;;;5.40;58.20;;;;;;4978018;28;20195;-70
2022/02/14 05:23:15;;;;;;;6.07;2.73;;;5.40;56.90;;;;;;4983919;28;20186;-73
2022/02/14 05:25:40;;;;;;;13.57;3.10;;;5.40;57.40;;;;;;4977686;28;20235;-73
2022/02/14 05:28:07;;;;;;;7.93;3.07;;;5.30;57.00;;;;;;4988774;28;20992;-70
2022/02/14 05:30:33;;;;;;;5.93;3.10;;;5.20;57.40;;;;;;4985937;28;20222;-72
2022/02/14 05:32:59;;;;;;;11.17;2.97;;;5.20;57.40;;;;;;4992006;28;20451;-71
2022/02/14 05:35:25;;;;;;;5.27;2.83;;;5.20;57.20;;;;;;4981675;28;20909;-70
2022/02/14 05:37:52;;;;;;;5.03;3.30;;;5.10;57.40;;;;;;4981735;28;20426;-70
2022/02/14 05:40:18;;;;;;;3.30;2.73;;;5.10;57.20;;;;;;4979552;28;20207;-72
2022/02/14 05:42:44;;;;;;;8.70;3.27;;;5.10;57.60;;;;;;4977135;28;20446;-72
2022/02/14 05:45:10;;;;;;;11.13;4.33;;;5.10;57.80;;;;;;4976136;28;20421;-73
2022/02/14 05:47:36;;;;;;;11.67;3.40;;;5.10;58.20;;;;;;4976567;28;20621;-73
2022/02/14 05:50:03;;;;;;;5.77;3.40;;;5.10;57.60;;;;;;4974397;28;20504;-72
2022/02/14 05:52:29;;;;;;;5.63;3.20;;;5.10;57.60;;;;;;4977826;28;20414;-73
2022/02/14 05:54:55;;;;;;;4.30;2.87;;;5.20;56.60;;;;;;4969600;28;20464;-74
2022/02/14 05:57:21;;;;;;;4.00;2.77;;;5.20;56.80;;;;;;4975804;28;20171;-74
2022/02/14 05:59:47;;;;;;;3.40;2.43;;;5.20;56.80;;;;;;4973420;28;20427;-73
2022/02/14 06:02:13;;;;;;;6.00;3.07;;;5.20;56.60;;;;;;4973116;28;20529;-73
2022/02/14 06:04:39;;;;;;;7.20;3.33;;;5.20;56.60;;;;;;4963494;28;20188;-73
2022/02/14 06:07:05;;;;;;;7.20;3.20;;;5.30;56.80;;;;;;4985712;28;20426;-73
2022/02/14 06:09:31;;;;;;;5.10;3.07;;;5.30;56.60;;;;;;4978563;28;20187;-72
2022/02/14 06:11:57;;;;;;;5.70;3.83;;;5.30;55.80;;;;;;4982349;28;20458;-71
2022/02/14 06:14:23;;;;;;;3.30;2.77;;;5.30;55.80;;;;;;4980552;28;21044;-73
2022/02/14 06:16:49;;;;;;;5.33;2.67;;;5.30;55.80;;;;;;4977096;28;20179;-72
2022/02/14 06:19:15;;;;;;;5.33;3.13;;;5.40;55.40;;;;;;4979647;28;20442;-72
2022/02/14 06:21:41;;;;;;;4.30;2.57;;;5.40;55.30;;;;;;4964700;28;21211;-71
2022/02/14 06:24:07;;;;;;;5.80;3.10;;;5.50;55.00;;;;;;4980242;28;20446;-71
2022/02/14 06:26:32;;;;;;;8.00;3.30;;;5.50;54.80;;;;;;4968077;28;20226;-73
2022/02/14 06:29:03;;;;;;;6.33;3.40;;;5.60;54.90;;;;;;4967174;28;20182;-72
2022/02/14 06:31:29;;;;;;;8.30;3.53;;;5.50;55.00;;;;;;4979211;28;20260;-71
2022/02/14 06:33:55;;;;;;;9.03;3.30;;;5.50;55.00;;;;;;4979973;28;20504;-71
2022/02/14 06:36:23;;;;;;;6.17;3.43;;;5.60;54.80;;;;;;4975167;28;20417;-71
2022/02/14 06:38:50;;;;;;;5.50;3.30;;;5.60;54.90;;;;;;4978029;28;20414;-71
2022/02/14 06:41:16;;;;;;;6.57;3.07;;;5.60;54.60;;;;;;4973352;28;20446;-72
2022/02/14 06:43:42;;;;;;;5.97;2.93;;;5.60;54.10;;;;;;4974361;28;20458;-73
2022/02/14 06:46:08;;;;;;;7.50;3.50;;;5.70;54.10;;;;;;4982243;28;20435;-72
2022/02/14 06:48:33;;;;;;;6.87;2.93;;;5.70;54.00;;;;;;4969880;28;20206;-72
2022/02/14 06:50:59;;;;;;;7.57;3.00;;;5.70;54.10;;;;;;4981610;28;20203;-72
2022/02/14 06:53:26;;;;;;;5.50;3.23;;;5.70;54.10;;;;;;4983422;28;20290;-72
2022/02/14 06:55:52;;;;;;;8.67;3.40;;;5.80;53.80;;;;;;4975625;28;20497;-71
2022/02/14 06:58:18;;;;;;;6.00;3.00;;;5.70;54.00;;;;;;4979648;28;20426;-72
2022/02/14 07:00:44;;;;;;;9.53;3.53;;;5.70;54.10;;;;;;4974447;28;20579;-72
2022/02/14 07:03:10;;;;;;;5.80;3.10;;;5.70;54.40;;;;;;4975091;28;20198;-71
2022/02/14 07:05:36;;;;;;;10.43;3.90;;;5.70;54.40;;;;;;4978052;28;20422;-72
2022/02/14 07:08:03;;;;;;;9.20;3.77;;;5.80;54.50;;;;;;4980576;28;20990;-72
2022/02/14 07:10:29;;;;;;;6.80;3.60;;;5.80;54.40;;;;;;4974987;28;20891;-73
2022/02/14 07:12:55;;;;;;;8.97;3.37;;;5.80;54.10;;;;;;4977837;28;20422;-73
2022/02/14 07:15:21;;;;;;;8.00;4.03;;;5.80;54.40;;;;;;4980728;28;20528;-72
2022/02/14 07:17:48;;;;;;;8.27;3.73;;;5.90;54.60;;;;;;4975521;28;20434;-74
2022/02/14 07:20:15;;;;;;;7.93;3.67;;;6.00;55.00;;;;;;4974011;28;20471;-73
2022/02/14 07:22:41;;;;;;;5.03;3.23;;;6.00;54.80;;;;;;4970508;28;20509;-72
2022/02/14 07:25:07;;;;;;;7.83;3.17;;;5.90;54.50;;;;;;4977860;28;20430;-73
2022/02/14 07:27:34;;;;;;;7.80;4.00;;;5.90;54.40;;;;;;4978962;28;20420;-71
2022/02/14 07:30:02;;;;;;;9.60;3.47;;;5.90;54.50;;;;;;4976549;28;20421;-73
2022/02/14 07:32:28;;;;;;;8.67;3.80;;;6.00;53.70;;;;;;4974956;28;20466;-73
2022/02/14 07:34:56;;;;;;;7.80;3.40;;;6.00;54.40;;;;;;4974907;28;20508;-73
2022/02/14 07:37:22;;;;;;;8.63;4.57;;;6.10;54.80;;;;;;4974916;28;20187;-72
2022/02/14 07:39:48;;;;;;;6.53;3.70;;;6.10;54.40;;;;;;4988118;28;20459;-72
2022/02/14 07:42:14;;;;;;;7.77;4.00;;;6.20;54.60;;;;;;4971255;28;20458;-73
2022/02/14 07:44:40;;;;;;;9.07;4.20;;;6.20;54.40;;;;;;4983999;28;20237;-73
2022/02/14 07:47:05;;;;;;;7.50;4.23;;;6.20;54.40;;;;;;4977893;28;20217;-73
2022/02/14 07:49:31;;;;;;;12.00;3.77;;;6.20;54.90;;;;;;4983263;28;20196;-73
2022/02/14 07:51:57;;;;;;;8.60;4.20;;;6.30;55.30;;;;;;4976006;28;20217;-71
2022/02/14 07:54:23;;;;;;;12.97;4.20;;;6.30;55.40;;;;;;4980743;28;20238;-73
2022/02/14 07:56:48;;;;;;;15.27;4.30;;;6.30;56.10;;;;;;4973623;28;20558;-72
2022/02/14 07:59:14;;;;;;;7.93;4.07;;;6.20;56.40;;;;;;4979890;28;20574;-73
2022/02/14 08:01:40;;;;;;;10.07;4.10;;;6.20;56.80;;;;;;4970645;28;20594;-73
2022/02/14 08:04:06;;;;;;;16.90;4.90;;;6.20;56.50;;;;;;4978281;28;20654;-73
2022/02/14 08:06:32;;;;;;;8.80;3.93;;;6.30;56.80;;;;;;4978471;28;20431;-73
2022/02/14 08:08:58;;;;;;;7.80;3.80;;;6.30;57.00;;;;;;4977513;28;20462;-72
2022/02/14 08:11:24;;;;;;;7.13;3.47;;;6.30;57.00;;;;;;4978224;28;20962;-71
2022/02/14 08:13:50;;;;;;;5.13;3.83;;;6.30;56.80;;;;;;4975278;28;20474;-74
2022/02/14 08:16:16;;;;;;;10.73;4.37;;;6.40;56.80;;;;;;4972502;28;20190;-73
2022/02/14 08:18:42;;;;;;;8.93;4.63;;;6.40;56.80;;;;;;4986274;28;20175;-71
2022/02/14 08:21:07;;;;;;;9.47;3.60;;;6.40;57.20;;;;;;4967434;28;20883;-72
2022/02/14 08:23:33;;;;;;;6.23;3.77;;;6.50;57.20;;;;;;4981046;28;20190;-73
2022/02/14 08:25:59;;;;;;;7.60;4.30;;;6.60;56.00;;;;;;4972138;28;20195;-74
2022/02/14 08:28:24;;;;;;;10.57;3.83;;;6.70;56.40;;;;;;4979969;28;20320;-73
2022/02/14 08:30:50;;;;;;;9.57;3.47;;;6.70;56.80;;;;;;4976899;28;20221;-72
2022/02/14 08:33:17;;;;;;;6.37;4.00;;;6.80;57.20;;;;;;4979801;28;20206;-73
2022/02/14 08:35:43;;;;;;;8.57;3.93;;;6.90;56.90;;;;;;4972737;28;20815;-72
2022/02/14 08:38:09;;;;;;;12.50;4.50;;;6.90;57.20;;;;;;4978895;28;20426;-72
2022/02/14 08:40:35;;;;;;;10.20;4.43;;;7.10;57.00;;;;;;4980143;28;20210;-71
2022/02/14 08:43:02;;;;;;;15.37;5.10;;;7.20;55.30;;;;;;4976782;28;20520;-74
2022/02/14 08:45:28;;;;;;;13.30;4.70;;;7.30;55.00;;;;;;4976231;28;20441;-72
2022/02/14 08:47:54;;;;;;;12.23;5.00;;;7.50;54.60;;;;;;4968985;28;20517;-73
2022/02/14 08:50:20;;;;;;;9.23;4.60;;;7.60;53.70;;;;;;4973936;28;20607;-73
2022/02/14 08:52:47;;;;;;;13.00;5.57;;;7.70;53.70;;;;;;4986775;28;20191;-72
2022/02/14 08:55:14;;;;;;;7.93;4.00;;;7.70;53.70;;;;;;4972622;28;20471;-73
2022/02/14 08:57:41;;;;;;;8.10;3.87;;;7.80;53.80;;;;;;4985397;28;20441;-73
2022/02/14 09:00:08;;;;;;;9.10;4.00;;;7.90;52.40;;;;;;4971599;28;20467;-74
2022/02/14 09:02:34;;;;;;;9.00;3.47;;;8.00;52.20;;;;;;4978391;28;20426;-73
2022/02/14 09:05:00;;;;;;;10.83;3.50;;;8.20;51.80;;;;;;4975080;28;20453;-73
2022/02/14 09:07:26;;;;;;;15.13;4.90;;;8.50;51.40;;;;;;4979429;28;20430;-73
2022/02/14 09:09:52;;;;;;;7.20;3.47;;;8.70;51.40;;;;;;4972714;28;20912;-73
2022/02/14 09:12:19;;;;;;;15.53;3.97;;;8.90;50.90;;;;;;4978237;28;20433;-72
2022/02/14 09:14:45;;;;;;;8.43;4.23;;;9.10;50.10;;;;;;4972379;28;20462;-73
2022/02/14 09:17:11;;;;;;;8.63;3.70;;;9.40;49.80;;;;;;4976846;28;20421;-72
2022/02/14 09:19:37;;;;;;;6.07;3.60;;;9.60;49.30;;;;;;4976938;28;20431;-73
2022/02/14 09:22:03;;;;;;;10.07;4.40;;;9.90;48.20;;;;;;4962050;28;20225;-73
2022/02/14 09:24:30;;;;;;;6.70;3.50;;;10.10;47.80;;;;;;4979009;28;20485;-72
2022/02/14 09:26:56;;;;;;;8.20;3.87;;;10.30;47.10;;;;;;4987255;28;20485;-72
2022/02/14 09:29:23;;;;;;;9.00;3.50;;;10.50;46.70;;;;;;4971976;28;20420;-74
2022/02/14 09:31:49;;;;;;;5.27;3.00;;;10.70;47.00;;;;;;4984442;28;20478;-71
2022/02/14 09:34:15;;;;;;;5.20;2.90;;;10.80;46.60;;;;;;4974523;28;20474;-72
2022/02/14 09:36:43;;;;;;;6.67;3.33;;;10.80;46.70;;;;;;4982945;28;20767;-73
2022/02/14 09:39:09;;;;;;;7.27;3.40;;;10.90;46.70;;;;;;4978677;28;20199;-72
2022/02/14 09:41:36;;;;;;;9.03;3.70;;;11.00;46.90;;;;;;4978249;28;20536;-71
2022/02/14 09:44:06;;;;;;;7.97;3.50;;;11.10;47.00;;;;;;4974094;28;20202;-74
2022/02/14 09:46:35;;;;;;;6.87;2.70;;;11.10;47.10;;;;;;4977054;28;20429;-72
2022/02/14 09:49:03;;;;;;;16.63;3.37;;;11.10;47.00;;;;;;4971648;28;20452;-71
2022/02/14 09:51:30;;;;;;;3.77;2.70;;;11.20;47.30;;;;;;4974849;28;20438;-73
2022/02/14 09:53:59;;;;;;;10.73;3.47;;;11.30;47.00;;;;;;4981373;28;20492;-73
2022/02/14 09:56:29;;;;;;;6.47;2.73;;;11.40;46.70;;;;;;4976638;28;20417;-72
2022/02/14 09:58:55;;;;;;;7.00;3.03;;;11.50;46.90;;;;;;4969421;28;20425;-72
2022/02/14 10:01:22;;;;;;;7.83;3.37;;;11.50;46.70;;;;;;4974057;28;20889;-73
2022/02/14 10:03:49;;;;;;;11.80;3.90;;;11.60;47.00;;;;;;4977858;28;21204;-73
2022/02/14 10:06:28;;;;;;;6.83;3.23;;;11.70;47.00;;;;;;4983801;28;20444;-73
2022/02/14 10:09:13;;;;;;;5.70;2.70;;;11.70;47.40;;;;;;4972135;28;20517;-72
2022/02/14 10:11:59;;;;;;;8.37;3.30;;;11.70;47.40;;;;;;4977245;28;20454;-73
2022/02/14 10:14:25;;;;;;;8.33;2.90;;;11.80;47.50;;;;;;4975723;28;20473;-73
2022/02/14 10:16:59;;;;;;;9.80;3.30;;;11.80;47.50;;;;;;4979396;28;20421;-72
2022/02/14 10:19:25;;;;;;;7.10;3.30;;;11.90;47.90;;;;;;4980483;28;20459;-72
2022/02/14 10:21:51;;;;;;;6.10;3.03;;;11.90;48.10;;;;;;4972827;28;20469;-73
2022/02/14 10:24:17;;;;;;;5.07;2.63;;;12.00;48.30;;;;;;4979921;28;20427;-73
2022/02/14 10:26:47;;;;;;;7.37;3.53;;;12.10;48.90;;;;;;4989140;28;20440;-72
2022/02/14 10:29:20;;;;;;;9.80;3.30;;;12.30;49.00;;;;;;4975909;28;20470;-72
2022/02/14 10:31:59;;;;;;;7.53;3.23;;;12.40;48.90;;;;;;4987290;28;20489;-71
2022/02/14 10:34:38;;;;;;;6.90;2.93;;;12.50;49.10;;;;;;4971455;28;20621;-73
2022/02/14 10:37:10;;;;;;;11.37;3.37;;;12.50;49.50;;;;;;4974328;28;20434;-72
2022/02/14 10:39:36;;;;;;;8.93;3.50;;;12.60;49.50;;;;;;4988024;28;20536;-71
2022/02/14 10:42:14;;;;;;;8.90;3.80;;;12.60;49.70;;;;;;4976335;28;20577;-72
2022/02/14 10:47:35;;;;;;;6.63;2.60;;;12.80;50.30;;;;;;4973329;28;20431;-71
2022/02/14 10:50:07;;;;;;;5.73;2.60;;;12.80;50.90;;;;;;4985135;28;20427;-72
2022/02/14 10:52:35;;;;;;;10.87;2.70;;;12.80;51.30;;;;;;4985831;28;20808;-72
2022/02/14 10:55:02;;;;;;;5.30;2.63;;;12.70;51.30;;;;;;4974808;28;20964;-72
2022/02/14 10:57:37;;;;;;;7.53;3.07;;;12.70;51.70;;;;;;4984442;28;20901;-73
2022/02/14 11:00:10;;;;;;;8.10;3.33;;;12.80;51.80;;;;;;4970056;28;20482;-72
2022/02/14 11:02:37;;;;;;;8.50;2.93;;;12.90;52.10;;;;;;4982806;28;20422;-71
2022/02/14 11:05:07;;;;;;;3.43;2.43;;;13.00;52.00;;;;;;4979894;28;20448;-73
2022/02/14 11:07:33;;;;;;;10.10;3.40;;;13.00;52.20;;;;;;4983239;28;20492;-72
2022/02/14 11:10:02;;;;;;;6.43;2.80;;;13.00;52.00;;;;;;4977960;28;20446;-71
2022/02/14 11:12:30;;;;;;;7.93;3.37;;;13.00;52.00;;;;;;4980890;28;20426;-72
2022/02/14 11:14:57;;;;;;;4.13;2.37;;;13.00;52.00;;;;;;4972879;28;20528;-73
2022/02/14 11:17:28;;;;;;;9.03;3.10;;;13.10;52.20;;;;;;4976267;28;20418;-72
2022/02/14 11:19:56;;;;;;;7.30;2.60;;;13.00;52.20;;;;;;4973215;28;20435;-72
2022/02/14 11:22:27;;;;;;;6.43;2.60;;;13.10;52.50;;;;;;4969110;28;20429;-72
2022/02/14 11:25:22;;;;;;;8.03;2.60;;;13.10;52.80;;;;;;4976322;28;20793;-72
2022/02/14 11:28:12;;;;;;;6.10;3.17;;;13.10;53.00;;;;;;4979083;28;20461;-73
2022/02/14 11:30:41;;;;;;;5.03;2.37;;;13.20;53.00;;;;;;4974800;28;20455;-73
2022/02/14 11:33:16;;;;;;;7.37;2.53;;;13.20;53.60;;;;;;4978943;28;20529;-73
2022/02/14 11:36:05;;;;;;;5.70;2.50;;;13.10;54.90;;;;;;4971768;28;20531;-72
2022/02/14 11:39:03;;;;;;;5.30;2.67;;;13.10;55.40;;;;;;4975723;28;20536;-73
2022/02/14 11:41:41;;;;;;;4.10;2.40;;;13.10;55.60;;;;;;4977665;28;20462;-71
2022/02/14 11:46:46;;;;;;;3.40;1.87;;;12.90;56.10;;;;;;4975290;28;20867;-72
2022/02/14 11:49:13;;;;;;;7.77;2.43;;;13.00;55.80;;;;;;4975195;28;20425;-73
2022/02/14 11:51:45;;;;;;;6.10;2.23;;;13.00;56.10;;;;;;4976211;28;20457;-72
2022/02/14 11:54:31;;;;;;;10.03;2.80;;;13.00;56.10;;;;;;4978807;28;20482;-72
2022/02/14 11:57:31;;;;;;;5.67;2.43;;;12.90;56.50;;;;;;4971953;28;20496;-73
2022/02/14 12:00:15;;;;;;;5.73;2.83;;;13.00;56.20;;;;;;4955028;28;20423;-71
2022/02/14 12:02:54;;;;;;;6.30;1.90;;;13.00;56.80;;;;;;4978845;28;20822;-72
2022/02/14 12:05:39;;;;;;;6.47;2.43;;;13.00;56.20;;;;;;4978099;28;20436;-72
2022/02/14 12:08:05;;;;;;;6.50;2.57;;;13.00;56.10;;;;;;4973663;28;20435;-71
2022/02/14 12:10:32;;;;;;;5.47;2.50;;;13.00;55.80;;;;;;4984793;28;20460;-72
2022/02/14 12:12:59;;;;;;;3.47;2.23;;;12.90;56.10;;;;;;4968460;28;20431;-71
2022/02/14 12:21:07;;;;;;;3.47;2.00;;;13.00;56.20;;;;;;4963009;28;20426;-72
2022/02/14 12:23:40;;;;;;;4.90;2.37;;;13.00;56.60;;;;;;4981554;28;20860;-74
2022/02/14 12:26:08;;;;;;;9.30;2.33;;;13.00;57.20;;;;;;4975930;28;20437;-72
2022/02/14 12:28:36;;;;;;;6.93;2.30;;;13.00;57.60;;;;;;4984153;28;20432;-72
2022/02/14 12:31:02;;;;;;;5.93;3.00;;;13.00;58.40;;;;;;4977898;28;20469;-71
2022/02/14 12:33:28;;;;;;;3.93;2.23;;;13.00;58.50;;;;;;4983050;28;20508;-72
2022/02/14 12:35:56;;;;;;;4.63;2.23;;;13.00;58.50;;;;;;4974553;28;21012;-72
2022/02/14 12:38:27;;;;;;;2.60;1.90;;;13.00;58.80;;;;;;4986195;28;20181;-72
2022/02/14 12:40:52;;;;;;;4.40;2.20;;;13.00;58.80;;;;;;4990010;28;20442;-72
2022/02/14 12:43:27;;;;;;;3.70;2.37;;;13.10;58.40;;;;;;4981605;28;20452;-72
2022/02/14 12:45:54;;;;;;;3.50;1.80;;;13.10;58.70;;;;;;4985186;28;20216;-73
2022/02/14 12:48:52;;;;;;;6.80;2.57;;;13.10;59.10;;;;;;4978108;28;20493;-73
2022/02/14 12:51:24;;;;;;;2.73;1.80;;;13.10;58.90;;;;;;4971843;28;20481;-72
2022/02/14 12:53:55;;;;;;;5.60;1.97;;;13.20;58.80;;;;;;4979924;28;20458;-72
2022/02/14 12:56:32;;;;;;;12.07;2.13;;;13.10;58.90;;;;;;4975068;28;20418;-73
2022/02/14 12:59:05;;;;;;;5.63;2.50;;;13.10;59.10;;;;;;4965788;28;20433;-71
2022/02/14 13:01:33;;;;;;;4.20;2.10;;;13.20;59.10;;;;;;4980169;28;20444;-73
2022/02/14 13:04:11;;;;;;;3.13;2.00;;;13.10;58.90;;;;;;4977575;28;21073;-74
2022/02/14 13:06:50;;;;;;;4.43;2.30;;;13.00;58.90;;;;;;4976717;28;20519;-73